Jack Mc Namara Field Airport
KCEC : now visible

Airfield :











YOU CAN JOIN US ON...

 
LOGIN :

Register | Disclaimer

   EN    FR    IT 

 









Legend :    VFR   Marginal VFR   IFR   Intensive IFR   Very Intensive IFR
Visi :
Ceiling :
>= 8 km
>= 3000ft
5 to 8 km
1000 to 3000 ft
1500m to 5 km
500 to 1000 ft
800 to 1500m
200 to 500 ft
< 800m
< 200 ft
Symbols :   Thunderstorms  Fog  Heavy snow  Heavy precipitations  Wind > 20 kt






- Airport Elevation : 61 ft
- IATA code : CEC


KCEC - Jack Mc Namara Field

CURRENT METAR :
  • 030956Z AUTO 00000KT 5SM BR CLR 06/06 A3021 RMK AO2 SLP229 T00610061

EXPIRED METARs :
  • 030943Z AUTO 00000KT 5SM BR SCT002 06/06 A3021 RMK AO2 T00610061
  • 030856Z AUTO 08006KT 5SM BR BKN003 07/07 A3020 RMK AO2 SLP227 T00720067 53006
  • 030756Z AUTO 02003KT 5SM BR OVC003 08/07 A3018 RMK AO2 SLP222 T00780067 401060028

TAF KCEC
Valid from the 03 at 06:00 until the 04 at 06:00 UTC


030522Z 0306/0406 VRB03KT 6SM BR OVC004
FM031000 VRB03KT 2SM BR OVC003
FM031400 VRB03KT 6SM BR BKN005 BKN100
FM032100 32005KT 6SM HZ BKN040
FM040200 36005KT P6SM BKN025
KZSE FIR / North America



MET'MAP, your aeronautical weather chart ! - Copyright ORBIFLY December 2007 - Disclaimer

ORBIFLY MET'MAP TEAM :

Programming & Development : Alexandra Zaïnal
Concept & original design : Baudouin d'Aumeries
Assistance for programming : Marc-Olivier Méhu
Technical & hardware support : Manuel Goepfert

Contact : metmap@orbifly.com




SOURCES & CREDITS :

   NOAA       Earth
Advisory